This is the latest recevied weather packets stored in our database for station/object Ostrach. If no packets are shown the sender has not sent any weather packets the latest 10 day(s).
| Time | Temp. | Humidity | Pressure | Rain* | Wind** | Luminosity | Snow |
|---|---|---|---|---|---|---|---|
| 1777424532 | 11.67° C | 52% | 1014.5 hPa | 0 mm | - | - | - |
| 1777422731 | 12.22° C | 51% | 1014.5 hPa | 0 mm | - | - | - |
| 1777420930 | 12.78° C | 49% | 1014.7 hPa | 0 mm | - | - | - |
| 1777419130 | 13.33° C | 47% | 1014.8 hPa | 0 mm | - | - | - |
| 1777417329 | 14.44° C | 44% | 1014.9 hPa | 0 mm | - | - | - |
| 1777415530 | 14.44° C | 44% | 1015 hPa | 0 mm | - | - | - |
| 1777413729 | 15° C | 42% | 1014.9 hPa | 0 mm | - | - | - |
| 1777411929 | 15.56° C | 43% | 1014.8 hPa | 0 mm | - | - | - |
| 1777410130 | 15° C | 43% | 1014.8 hPa | 0 mm | - | - | - |
| 1777408330 | 15.56° C | 42% | 1014.8 hPa | 0 mm | - | - | - |
| 1777406537 | 16.67° C | 38% | 1014.7 hPa | 0 mm | - | - | - |
| 1777404730 | 16.67° C | 37% | 1014.6 hPa | 0 mm | - | - | - |
| 1777402947 | 16.67° C | 38% | 1014.4 hPa | 0 mm | - | - | - |
| 1777401131 | 17.22° C | 38% | 1014.2 hPa | 0 mm | - | - | - |
| 1777399330 | 17.78° C | 38% | 1014.1 hPa | 0 mm | - | - | - |
| 1777397531 | 18.33° C | 36% | 1013.8 hPa | 0 mm | - | - | - |
| 1777395730 | 18.33° C | 35% | 1013.5 hPa | 0 mm | - | - | - |
| 1777393932 | 18.89° C | 34% | 1013.3 hPa | 0 mm | - | - | - |
| 1777392131 | 19.44° C | 35% | 1013.1 hPa | 0 mm | - | - | - |
| 1777390330 | 20° C | 34% | 1013 hPa | 0 mm | - | - | - |
| 1777388530 | 20° C | 33% | 1013 hPa | 0 mm | - | - | - |
| 1777386731 | 20° C | 34% | 1012.9 hPa | 0 mm | - | - | - |
| 1777384930 | 20.56° C | 33% | 1012.9 hPa | 0 mm | - | - | - |
| 1777383131 | 20° C | 33% | 1013.3 hPa | 0 mm | - | - | - |
| 1777381331 | 20.56° C | 33% | 1013.4 hPa | 0 mm | - | - | - |
* Rain since midnight (hover to see other rain measurements)
** Current wind speed in m/s (hover to see current wind gust speed)